createdAt,value
2019-03-26T00:00:18.860Z,43.20
2019-03-26T00:02:49.320Z,43.20
2019-03-26T00:05:19.878Z,43.20
2019-03-26T00:07:50.633Z,43.20
2019-03-26T00:10:21.518Z,43.20
2019-03-26T00:12:52.239Z,43.10
2019-03-26T00:15:22.765Z,43.10
2019-03-26T00:17:53.269Z,43.20
2019-03-26T00:20:23.797Z,43.10
2019-03-26T00:22:54.507Z,43.10
2019-03-26T00:25:24.961Z,43.10
2019-03-26T00:27:55.333Z,43.10
2019-03-26T00:30:26.018Z,43.10
2019-03-26T00:32:56.401Z,43.10
2019-03-26T00:35:27.324Z,43.10
2019-03-26T00:37:57.777Z,43.20
2019-03-26T00:40:28.263Z,43.20
2019-03-26T00:42:59.053Z,43.20
2019-03-26T00:45:29.722Z,43.10
2019-03-26T00:48:00.346Z,43.20
2019-03-26T00:50:31.194Z,43.20
2019-03-26T00:53:01.566Z,43.20
2019-03-26T00:55:33.712Z,43.20
2019-03-26T00:58:04.851Z,43.20
2019-03-26T01:00:40.234Z,43.20
2019-03-26T01:03:11.238Z,43.20
2019-03-26T01:05:42.180Z,43.20
2019-03-26T01:08:13.390Z,43.20
2019-03-26T01:10:44.474Z,43.10
2019-03-26T01:13:14.985Z,43.10
2019-03-26T01:15:45.394Z,43.10
2019-03-26T01:18:16.211Z,43.20
2019-03-26T01:20:47.684Z,43.20
2019-03-26T01:23:18.110Z,43.20
2019-03-26T01:25:48.869Z,43.10
2019-03-26T01:28:19.678Z,43.10
2019-03-26T01:30:50.158Z,43.20
2019-03-26T01:33:21.056Z,43.10
2019-03-26T01:35:52.114Z,43.20
2019-03-26T01:38:22.502Z,43.20
2019-03-26T01:40:52.981Z,43.10
2019-03-26T01:43:23.347Z,43.20
2019-03-26T01:45:53.929Z,43.20
2019-03-26T01:48:43.713Z,43.20
2019-03-26T01:51:14.435Z,43.10
2019-03-26T01:53:47.485Z,43.10
2019-03-26T01:56:17.949Z,43.30
2019-03-26T01:58:48.588Z,43.10
2019-03-26T02:01:19.028Z,43.10
2019-03-26T02:03:49.861Z,43.10
2019-03-26T02:06:20.278Z,43.10
2019-03-26T02:08:51.075Z,43.80
2019-03-26T02:11:21.778Z,43.00
2019-03-26T02:13:52.294Z,43.00
2019-03-26T02:16:22.969Z,43.00
2019-03-26T02:18:53.933Z,43.00
2019-03-26T02:21:24.801Z,43.00
2019-03-26T02:23:55.165Z,43.00
2019-03-26T02:26:25.821Z,43.00
2019-03-26T02:28:56.553Z,43.00
2019-03-26T02:31:26.986Z,43.00
2019-03-26T02:33:57.504Z,43.00
2019-03-26T02:36:28.264Z,43.00
2019-03-26T02:38:59.288Z,43.10
2019-03-26T02:41:29.902Z,43.00
2019-03-26T02:44:00.619Z,43.00
2019-03-26T02:46:31.092Z,42.90
2019-03-26T02:49:01.774Z,42.90
2019-03-26T02:51:32.434Z,42.90
2019-03-26T02:54:03.179Z,42.90
2019-03-26T02:56:33.752Z,42.80
2019-03-26T02:59:04.227Z,42.80
2019-03-26T03:01:34.812Z,42.80
2019-03-26T03:04:05.519Z,42.90
2019-03-26T03:06:36.223Z,42.80
2019-03-26T03:09:08.571Z,43.50
2019-03-26T03:11:39.009Z,42.80
2019-03-26T03:14:09.650Z,42.80
2019-03-26T03:16:40.140Z,42.70
2019-03-26T03:19:10.867Z,42.70
2019-03-26T03:21:42.040Z,42.70
2019-03-26T03:24:13.025Z,42.70
2019-03-26T03:26:43.870Z,42.70
2019-03-26T03:29:14.234Z,42.80
2019-03-26T03:31:45.203Z,42.70
2019-03-26T03:34:15.828Z,42.70
2019-03-26T03:36:46.556Z,42.70
2019-03-26T03:39:17.391Z,42.60
2019-03-26T03:41:48.345Z,42.60
2019-03-26T03:44:18.697Z,42.70
2019-03-26T03:46:50.573Z,42.60
2019-03-26T03:49:23.774Z,42.60
2019-03-26T03:51:55.236Z,42.60
2019-03-26T03:54:25.699Z,42.60
2019-03-26T03:56:58.299Z,42.70
2019-03-26T03:59:30.309Z,42.70
2019-03-26T04:02:01.073Z,42.60
2019-03-26T04:04:31.922Z,42.50
2019-03-26T04:07:02.747Z,42.50
2019-03-26T04:09:33.545Z,42.60
2019-03-26T04:12:04.401Z,42.60
2019-03-26T04:14:35.439Z,42.70
2019-03-26T04:17:06.273Z,42.60
2019-03-26T04:19:36.774Z,42.70
2019-03-26T04:22:07.599Z,42.60
2019-03-26T04:24:38.355Z,42.60
2019-03-26T04:27:09.093Z,42.50
2019-03-26T04:29:39.871Z,42.60
2019-03-26T04:32:10.267Z,42.60
2019-03-26T04:34:40.915Z,42.60
2019-03-26T04:37:11.625Z,42.60
2019-03-26T04:39:42.648Z,42.60
2019-03-26T04:42:13.563Z,42.70
2019-03-26T04:44:44.477Z,42.70
2019-03-26T04:47:15.043Z,42.70
2019-03-26T04:49:46.025Z,42.70
2019-03-26T04:52:16.800Z,42.70
2019-03-26T04:54:47.151Z,42.60
2019-03-26T04:57:17.632Z,42.60
2019-03-26T04:59:48.003Z,42.60
2019-03-26T05:02:37.860Z,42.60
2019-03-26T05:05:08.691Z,42.70
2019-03-26T05:07:39.128Z,42.60
2019-03-26T05:10:10.012Z,42.70
2019-03-26T05:12:40.955Z,42.70
2019-03-26T05:15:12.060Z,42.70
2019-03-26T05:17:42.608Z,42.70
2019-03-26T05:20:13.234Z,42.70
2019-03-26T05:23:03.265Z,42.70
2019-03-26T05:25:34.055Z,42.70
2019-03-26T05:28:04.840Z,42.70
2019-03-26T05:30:35.217Z,42.70
2019-03-26T05:33:05.636Z,42.70
2019-03-26T05:35:36.415Z,42.70
2019-03-26T05:38:06.825Z,42.70
2019-03-26T05:40:37.295Z,42.60
2019-03-26T05:43:07.700Z,42.60
2019-03-26T05:45:38.724Z,42.60
2019-03-26T05:48:09.424Z,42.60
2019-03-26T05:50:39.895Z,42.70
2019-03-26T05:53:10.365Z,42.60
2019-03-26T05:55:41.214Z,42.60
2019-03-26T05:58:12.233Z,42.60
2019-03-26T06:00:42.685Z,42.60
2019-03-26T06:03:13.546Z,42.60
2019-03-26T06:05:43.965Z,42.70
2019-03-26T06:08:14.757Z,42.70
2019-03-26T06:10:45.731Z,42.70
2019-03-26T06:13:16.714Z,42.60
2019-03-26T06:15:47.146Z,42.60
2019-03-26T06:18:17.806Z,42.60
2019-03-26T06:20:48.643Z,42.60
2019-03-26T06:23:19.842Z,42.60
2019-03-26T06:25:50.505Z,42.60
2019-03-26T06:28:20.881Z,42.60
2019-03-26T06:30:51.588Z,42.60
2019-03-26T06:33:22.037Z,42.60
2019-03-26T06:35:52.918Z,42.60
2019-03-26T06:38:23.444Z,42.60
2019-03-26T06:40:53.875Z,42.60
2019-03-26T06:43:24.299Z,42.60
2019-03-26T06:45:54.852Z,42.60
2019-03-26T06:48:25.502Z,42.60
2019-03-26T06:50:56.337Z,42.60
2019-03-26T06:53:27.178Z,42.60
2019-03-26T06:55:57.552Z,42.70
2019-03-26T06:58:28.406Z,42.70
2019-03-26T07:00:59.173Z,42.70
2019-03-26T07:03:29.976Z,42.70
2019-03-26T07:06:00.623Z,42.80
2019-03-26T07:08:31.064Z,42.70
2019-03-26T07:11:01.409Z,42.60
2019-03-26T07:13:32.126Z,42.70
2019-03-26T07:16:02.525Z,42.60
2019-03-26T07:18:33.353Z,42.70
2019-03-26T07:21:04.260Z,42.70
2019-03-26T07:23:34.835Z,42.70
2019-03-26T07:26:05.400Z,42.70
2019-03-26T07:28:36.573Z,42.70
2019-03-26T07:31:07.257Z,42.70
2019-03-26T07:33:37.991Z,42.60
2019-03-26T07:36:08.806Z,42.60
2019-03-26T07:38:39.200Z,43.30
2019-03-26T07:41:09.651Z,42.70
2019-03-26T07:43:40.008Z,42.70
2019-03-26T07:46:10.662Z,42.70
2019-03-26T07:48:41.034Z,42.70
2019-03-26T07:51:11.446Z,42.60
2019-03-26T07:53:41.849Z,43.30
2019-03-26T07:56:12.526Z,42.60
2019-03-26T07:58:43.224Z,42.60
2019-03-26T08:01:13.695Z,42.60
2019-03-26T08:03:44.524Z,42.60
2019-03-26T08:06:15.467Z,42.60
2019-03-26T08:08:46.223Z,42.60
2019-03-26T08:11:16.673Z,42.60
2019-03-26T08:13:47.695Z,42.60
2019-03-26T08:16:18.581Z,42.70
2019-03-26T08:18:49.283Z,42.80
2019-03-26T08:21:19.963Z,42.90
2019-03-26T08:23:50.370Z,42.90
2019-03-26T08:26:24.328Z,42.90
2019-03-26T08:28:54.977Z,43.20
2019-03-26T08:31:25.353Z,43.30
2019-03-26T08:33:55.990Z,43.30
2019-03-26T08:36:26.470Z,43.40
2019-03-26T08:38:57.680Z,43.30
2019-03-26T08:41:28.531Z,43.30
2019-03-26T08:43:59.277Z,42.80
2019-03-26T08:46:30.133Z,43.40
2019-03-26T08:49:00.557Z,43.30
2019-03-26T08:51:31.075Z,43.30
2019-03-26T08:54:01.586Z,43.30
2019-03-26T08:56:32.194Z,43.20
2019-03-26T08:59:02.713Z,43.20
2019-03-26T09:01:33.429Z,43.20
2019-03-26T09:04:04.153Z,43.10
2019-03-26T09:06:35.101Z,43.10
2019-03-26T09:09:07.398Z,43.10
2019-03-26T09:11:37.752Z,43.10
2019-03-26T09:14:08.240Z,43.10
2019-03-26T09:16:39.147Z,43.10
2019-03-26T09:19:09.598Z,43.00
2019-03-26T09:21:40.288Z,43.00
2019-03-26T09:24:29.882Z,43.00
2019-03-26T09:27:00.283Z,43.00
2019-03-26T09:29:30.660Z,43.00
2019-03-26T09:32:01.687Z,42.90
2019-03-26T09:34:32.556Z,42.90
2019-03-26T09:37:03.121Z,42.90
2019-03-26T09:39:33.766Z,42.90
2019-03-26T09:42:04.178Z,42.80
2019-03-26T09:44:35.068Z,42.80
2019-03-26T09:47:15.493Z,42.80
2019-03-26T09:49:37.973Z,42.90
2019-03-26T09:52:08.661Z,42.90
2019-03-26T09:54:39.378Z,42.80
2019-03-26T09:57:09.941Z,42.80
2019-03-26T09:59:40.719Z,42.70
2019-03-26T10:02:11.413Z,42.70
2019-03-26T10:04:42.209Z,42.70
2019-03-26T10:07:21.326Z,42.70
2019-03-26T10:09:45.157Z,42.80
2019-03-26T10:12:15.913Z,42.60
2019-03-26T10:14:46.754Z,42.50
2019-03-26T10:17:17.244Z,42.50
2019-03-26T10:19:47.641Z,42.50
2019-03-26T10:22:20.061Z,42.50
2019-03-26T10:24:50.397Z,42.50
2019-03-26T10:27:20.854Z,42.50
2019-03-26T10:29:51.474Z,42.50
2019-03-26T10:32:21.981Z,42.50
2019-03-26T10:34:52.587Z,42.40
2019-03-26T10:37:23.272Z,42.40
2019-03-26T10:39:53.724Z,42.40
2019-03-26T10:42:24.207Z,42.30
2019-03-26T10:44:54.589Z,42.30
2019-03-26T10:47:25.245Z,42.30
2019-03-26T10:49:56.064Z,42.30
2019-03-26T10:52:26.750Z,42.30
2019-03-26T10:54:57.199Z,42.30
2019-03-26T10:57:27.659Z,42.20
2019-03-26T10:59:58.126Z,42.20
2019-03-26T11:02:28.509Z,42.20
2019-03-26T11:04:58.899Z,42.20
2019-03-26T11:07:29.629Z,42.10
2019-03-26T11:10:00.347Z,42.10
2019-03-26T11:12:31.355Z,42.10
2019-03-26T11:15:02.454Z,42.10
2019-03-26T11:17:33.103Z,42.10
2019-03-26T11:20:03.489Z,42.10
2019-03-26T11:22:33.991Z,42.00
2019-03-26T11:25:05.579Z,41.90
2019-03-26T11:27:36.246Z,42.10
2019-03-26T11:30:08.193Z,42.00
2019-03-26T11:32:38.647Z,41.90
2019-03-26T11:35:10.382Z,41.90
2019-03-26T11:37:40.969Z,42.00
2019-03-26T11:40:12.064Z,41.90
2019-03-26T11:42:42.537Z,41.90
2019-03-26T11:45:13.529Z,41.90
2019-03-26T11:47:43.987Z,41.80
2019-03-26T11:50:14.884Z,41.80
2019-03-26T11:52:45.471Z,41.80
2019-03-26T11:55:16.552Z,41.80
2019-03-26T11:57:47.441Z,41.80
2019-03-26T12:00:19.668Z,41.70
2019-03-26T12:02:50.495Z,41.70
2019-03-26T12:05:21.193Z,41.70
2019-03-26T12:07:51.675Z,41.60
2019-03-26T12:10:22.557Z,41.60
2019-03-26T12:12:53.072Z,41.70
2019-03-26T12:15:23.818Z,41.70
2019-03-26T12:17:54.791Z,41.80
2019-03-26T12:20:25.625Z,41.50
2019-03-26T12:22:56.465Z,41.50
2019-03-26T12:25:26.908Z,41.50
2019-03-26T12:27:57.590Z,41.60
2019-03-26T12:30:32.862Z,41.70
2019-03-26T12:33:03.398Z,41.50
2019-03-26T12:35:34.033Z,41.40
2019-03-26T12:38:18.197Z,41.40
2019-03-26T12:40:49.454Z,41.40
2019-03-26T12:43:19.910Z,41.40
2019-03-26T12:45:50.587Z,41.40
2019-03-26T12:48:21.631Z,41.30
2019-03-26T12:50:52.994Z,41.20
2019-03-26T12:53:24.219Z,41.40
2019-03-26T12:55:54.909Z,41.30
2019-03-26T12:58:31.606Z,41.40
2019-03-26T13:00:57.536Z,41.30
2019-03-26T13:03:28.156Z,41.90
2019-03-26T13:05:58.516Z,41.20
2019-03-26T13:08:28.911Z,41.20
2019-03-26T13:10:59.626Z,41.00
2019-03-26T13:13:30.354Z,41.10
2019-03-26T13:16:01.584Z,41.20
2019-03-26T13:18:32.317Z,41.10
2019-03-26T13:21:03.112Z,41.10
2019-03-26T13:23:33.617Z,41.00
2019-03-26T13:26:04.087Z,41.00
2019-03-26T13:28:34.769Z,41.00
2019-03-26T13:31:05.508Z,41.00
2019-03-26T13:33:36.050Z,41.00
2019-03-26T13:36:06.875Z,41.00
2019-03-26T13:38:37.340Z,40.90
2019-03-26T13:41:08.295Z,40.90
2019-03-26T13:43:38.694Z,40.90
2019-03-26T13:46:09.697Z,40.80
2019-03-26T13:48:40.407Z,40.90
2019-03-26T13:51:11.450Z,40.90
2019-03-26T13:53:42.056Z,40.80
2019-03-26T13:56:13.011Z,40.90
2019-03-26T13:58:43.407Z,40.70
2019-03-26T14:01:14.224Z,40.70
2019-03-26T14:03:44.576Z,40.70
2019-03-26T14:06:14.991Z,40.70
2019-03-26T14:08:45.423Z,40.80
2019-03-26T14:11:15.881Z,40.70
2019-03-26T14:13:46.803Z,40.80
2019-03-26T14:16:17.229Z,40.80
2019-03-26T14:18:48.097Z,40.90
2019-03-26T14:21:18.847Z,40.90
2019-03-26T14:23:49.513Z,40.80
2019-03-26T14:26:20.233Z,40.90
2019-03-26T14:28:50.630Z,40.90
2019-03-26T14:31:21.020Z,41.20
2019-03-26T14:33:51.479Z,41.50
2019-03-26T14:36:21.910Z,41.70
2019-03-26T14:38:52.301Z,41.70
2019-03-26T14:41:22.766Z,41.70
2019-03-26T14:43:53.493Z,41.50
2019-03-26T14:46:24.141Z,41.40
2019-03-26T14:48:54.997Z,41.50
2019-03-26T14:51:25.567Z,41.70
2019-03-26T14:53:56.088Z,41.90
2019-03-26T14:56:26.497Z,42.00
2019-03-26T14:58:56.979Z,42.10
2019-03-26T15:01:27.573Z,42.70
2019-03-26T15:03:57.971Z,41.90
2019-03-26T15:06:28.455Z,41.90
2019-03-26T15:08:58.867Z,41.90
2019-03-26T15:11:29.480Z,42.00
2019-03-26T15:13:59.957Z,42.20
2019-03-26T15:16:30.541Z,42.30
2019-03-26T15:19:01.079Z,42.50
2019-03-26T15:21:31.406Z,42.50
2019-03-26T15:24:01.909Z,42.40
2019-03-26T15:26:32.727Z,42.10
2019-03-26T15:29:03.570Z,42.20
2019-03-26T15:31:34.093Z,42.20
2019-03-26T15:34:04.540Z,42.30
2019-03-26T15:36:35.143Z,42.50
2019-03-26T15:39:07.630Z,42.60
2019-03-26T15:41:39.808Z,42.70
2019-03-26T15:44:09.997Z,42.70
2019-03-26T15:46:40.500Z,42.90
2019-03-26T15:49:10.956Z,42.60
2019-03-26T15:51:41.700Z,42.30
2019-03-26T15:54:12.150Z,42.40
2019-03-26T15:56:42.565Z,42.40
2019-03-26T15:59:13.019Z,42.30
2019-03-26T16:01:43.777Z,42.30
2019-03-26T16:04:14.265Z,42.40
2019-03-26T16:06:45.833Z,42.50
2019-03-26T16:09:16.378Z,42.80
2019-03-26T16:11:46.991Z,42.80
2019-03-26T16:14:17.519Z,42.90
2019-03-26T16:16:49.986Z,43.30
2019-03-26T16:19:32.058Z,43.60
2019-03-26T16:21:52.254Z,43.80
2019-03-26T16:24:23.367Z,43.70
2019-03-26T16:26:55.146Z,43.90
2019-03-26T16:29:26.165Z,44.40
2019-03-26T16:31:56.715Z,44.40
2019-03-26T16:34:27.101Z,44.30
2019-03-26T16:36:59.691Z,44.20
2019-03-26T16:39:29.446Z,44.20
2019-03-26T16:41:59.872Z,44.10
2019-03-26T16:44:30.305Z,44.20
2019-03-26T16:47:00.730Z,44.10
2019-03-26T16:49:31.188Z,44.50
2019-03-26T16:52:01.829Z,45.70
2019-03-26T16:54:33.100Z,45.90
2019-03-26T16:57:03.569Z,45.50
2019-03-26T16:59:34.024Z,45.20
2019-03-26T17:02:04.523Z,45.10
2019-03-26T17:04:35.344Z,44.90
2019-03-26T17:07:05.912Z,44.80
2019-03-26T17:09:36.290Z,44.70
2019-03-26T17:12:06.761Z,44.70
2019-03-26T17:14:37.156Z,44.60
2019-03-26T17:17:08.929Z,44.50
2019-03-26T17:19:39.386Z,44.50
2019-03-26T17:22:09.760Z,44.50
2019-03-26T17:24:40.256Z,44.50
2019-03-26T17:27:10.650Z,44.60
2019-03-26T17:29:41.781Z,44.50
2019-03-26T17:32:12.263Z,44.40
2019-03-26T17:34:42.644Z,44.40
2019-03-26T17:37:13.317Z,44.40
2019-03-26T17:39:43.901Z,44.40
2019-03-26T17:42:17.429Z,44.40
2019-03-26T17:44:46.360Z,44.50
2019-03-26T17:47:16.890Z,44.50
2019-03-26T17:49:47.264Z,44.50
2019-03-26T17:52:17.880Z,44.70
2019-03-26T17:54:48.349Z,44.90
2019-03-26T17:57:18.771Z,44.80
2019-03-26T17:59:49.977Z,44.80
2019-03-26T18:02:20.357Z,44.70
2019-03-26T18:04:50.813Z,44.80
2019-03-26T18:07:21.192Z,44.90
2019-03-26T18:09:51.570Z,45.10
2019-03-26T18:12:30.891Z,45.30
2019-03-26T18:14:55.691Z,45.70
2019-03-26T18:17:25.739Z,45.70
2019-03-26T18:19:56.151Z,45.80
2019-03-26T18:22:26.531Z,45.90
2019-03-26T18:24:57.211Z,45.90
2019-03-26T18:27:27.581Z,45.90
2019-03-26T18:29:58.007Z,45.80
2019-03-26T18:32:28.687Z,45.90
2019-03-26T18:35:00.442Z,45.90
2019-03-26T18:37:31.404Z,45.90
2019-03-26T18:40:03.560Z,46.00
2019-03-26T18:42:43.530Z,46.00
2019-03-26T18:45:07.433Z,46.10
2019-03-26T18:47:37.821Z,46.10
2019-03-26T18:50:08.468Z,46.30
2019-03-26T18:52:38.964Z,46.30
2019-03-26T18:55:09.606Z,46.30
2019-03-26T18:57:40.016Z,46.30
2019-03-26T19:00:15.741Z,46.30
2019-03-26T19:02:46.232Z,46.40
2019-03-26T19:05:17.255Z,46.60
2019-03-26T19:07:47.698Z,46.60
2019-03-26T19:10:28.904Z,46.60
2019-03-26T19:12:59.634Z,46.80
2019-03-26T19:15:30.932Z,46.70
2019-03-26T19:18:02.358Z,46.70
2019-03-26T19:20:32.937Z,46.60
2019-03-26T19:23:03.465Z,46.70
2019-03-26T19:25:33.967Z,46.60
2019-03-26T19:28:07.609Z,46.40
2019-03-26T19:30:37.965Z,46.50
2019-03-26T19:33:08.455Z,46.90
2019-03-26T19:35:39.071Z,47.30
2019-03-26T19:38:09.615Z,47.40
2019-03-26T19:40:39.985Z,47.40
2019-03-26T19:43:11.748Z,47.60
2019-03-26T19:45:42.293Z,47.60
2019-03-26T19:48:12.676Z,47.70
2019-03-26T19:50:43.483Z,47.80
2019-03-26T19:53:13.954Z,47.80
2019-03-26T19:55:44.474Z,48.00
2019-03-26T19:58:15.105Z,48.00
2019-03-26T20:00:45.596Z,48.00
2019-03-26T20:03:15.999Z,47.90
2019-03-26T20:05:46.419Z,47.50
2019-03-26T20:08:16.860Z,46.30
2019-03-26T20:10:47.573Z,45.80
2019-03-26T20:13:24.243Z,44.70
2019-03-26T20:15:51.578Z,45.50
2019-03-26T20:18:22.083Z,45.50
2019-03-26T20:20:52.438Z,45.50
2019-03-26T20:23:22.816Z,45.40
2019-03-26T20:25:53.365Z,45.40
2019-03-26T20:28:26.660Z,45.40
2019-03-26T20:30:56.874Z,45.40
2019-03-26T20:33:30.497Z,45.70
2019-03-26T20:36:01.031Z,46.00
2019-03-26T20:38:31.468Z,46.10
2019-03-26T20:41:01.851Z,46.10
2019-03-26T20:43:37.482Z,46.10
2019-03-26T20:46:05.353Z,46.10
2019-03-26T20:48:35.742Z,46.10
2019-03-26T20:51:06.239Z,46.00
2019-03-26T20:53:36.729Z,45.90
2019-03-26T20:56:10.201Z,46.00
2019-03-26T20:58:44.825Z,46.10
2019-03-26T21:01:18.899Z,45.90
2019-03-26T21:03:48.845Z,46.30
2019-03-26T21:06:19.516Z,46.80
2019-03-26T21:08:54.933Z,47.20
2019-03-26T21:11:28.545Z,47.70
2019-03-26T21:13:59.002Z,46.00
2019-03-26T21:16:29.527Z,45.30
2019-03-26T21:19:00.189Z,43.80
2019-03-26T21:21:30.592Z,44.60
2019-03-26T21:24:01.189Z,45.10
2019-03-26T21:26:31.609Z,44.60
2019-03-26T21:29:02.039Z,43.80
2019-03-26T21:31:35.569Z,41.90
2019-03-26T21:34:06.173Z,42.00
2019-03-26T21:36:36.731Z,42.20
2019-03-26T21:39:08.036Z,41.80
2019-03-26T21:41:38.420Z,41.50
2019-03-26T21:44:08.816Z,40.00
2019-03-26T21:46:39.313Z,40.70
2019-03-26T21:49:09.743Z,40.60
2019-03-26T21:51:40.145Z,40.90
2019-03-26T21:54:10.548Z,40.20
2019-03-26T21:56:40.968Z,40.90
2019-03-26T21:59:12.145Z,40.90
2019-03-26T22:01:42.644Z,41.10
2019-03-26T22:04:13.291Z,39.90
2019-03-26T22:06:43.796Z,39.80
2019-03-26T22:09:14.279Z,40.00
2019-03-26T22:11:49.958Z,39.70
2019-03-26T22:14:18.214Z,40.50
2019-03-26T22:16:48.838Z,39.40
2019-03-26T22:19:28.378Z,38.70
2019-03-26T22:21:51.034Z,39.40
2019-03-26T22:24:21.520Z,39.00
2019-03-26T22:26:51.879Z,39.10
2019-03-26T22:29:22.271Z,38.90
2019-03-26T22:31:52.888Z,38.60
2019-03-26T22:34:23.505Z,38.10
2019-03-26T22:36:54.914Z,38.10
2019-03-26T22:39:25.336Z,38.40
2019-03-26T22:41:56.134Z,38.70
2019-03-26T22:44:31.575Z,38.50
2019-03-26T22:46:58.387Z,37.40
2019-03-26T22:49:28.865Z,37.80
2019-03-26T22:51:59.422Z,38.30
2019-03-26T22:54:29.853Z,38.40
2019-03-26T22:57:00.308Z,38.10
2019-03-26T22:59:30.773Z,37.10
2019-03-26T23:02:01.489Z,36.20
2019-03-26T23:04:34.079Z,36.10
2019-03-26T23:07:04.648Z,36.70
2019-03-26T23:09:38.761Z,36.80
2019-03-26T23:12:07.400Z,36.90
2019-03-26T23:14:45.063Z,37.00
2019-03-26T23:17:09.663Z,37.10
2019-03-26T23:19:40.086Z,37.20
2019-03-26T23:22:10.531Z,37.30
2019-03-26T23:24:41.125Z,37.30
2019-03-26T23:27:11.942Z,37.40
2019-03-26T23:29:42.306Z,37.60
2019-03-26T23:32:12.992Z,37.70
2019-03-26T23:34:43.464Z,37.80
2019-03-26T23:37:13.833Z,37.80
2019-03-26T23:39:44.237Z,38.00
2019-03-26T23:42:14.931Z,38.10
2019-03-26T23:44:57.799Z,38.10
2019-03-26T23:47:17.606Z,38.20
2019-03-26T23:49:47.999Z,38.30
2019-03-26T23:52:18.394Z,38.30
2019-03-26T23:54:48.790Z,38.40
2019-03-26T23:57:19.202Z,38.50
2019-03-26T23:59:49.946Z,38.60
